sensor_id;sensor_type;location;lat;lon;timestamp;temperature;humidity
36442;DHT22;64346;50.820;16.274;2023-07-13T00:01:04;21.50;99.90
36442;DHT22;64346;50.820;16.274;2023-07-13T00:03:42;21.50;99.90
36442;DHT22;64346;50.820;16.274;2023-07-13T00:06:09;21.50;99.90
36442;DHT22;64346;50.820;16.274;2023-07-13T00:08:42;21.50;99.90
36442;DHT22;64346;50.820;16.274;2023-07-13T00:11:09;21.50;99.90
36442;DHT22;64346;50.820;16.274;2023-07-13T00:13:36;21.50;99.90
36442;DHT22;64346;50.820;16.274;2023-07-13T00:16:07;21.40;99.90
36442;DHT22;64346;50.820;16.274;2023-07-13T00:18:34;21.40;99.90
36442;DHT22;64346;50.820;16.274;2023-07-13T00:21:02;21.30;99.90
36442;DHT22;64346;50.820;16.274;2023-07-13T00:23:29;21.20;99.90
36442;DHT22;64346;50.820;16.274;2023-07-13T00:25:56;21.20;99.90
36442;DHT22;64346;50.820;16.274;2023-07-13T00:28:26;21.20;99.90
36442;DHT22;64346;50.820;16.274;2023-07-13T00:30:53;21.10;99.90
36442;DHT22;64346;50.820;16.274;2023-07-13T00:33:21;21.10;99.90
36442;DHT22;64346;50.820;16.274;2023-07-13T00:35:53;21.00;99.90
36442;DHT22;64346;50.820;16.274;2023-07-13T00:38:23;21.00;99.90
36442;DHT22;64346;50.820;16.274;2023-07-13T00:40:51;21.00;99.90
36442;DHT22;64346;50.820;16.274;2023-07-13T00:43:20;21.00;99.90
36442;DHT22;64346;50.820;16.274;2023-07-13T00:48:29;21.00;99.90
36442;DHT22;64346;50.820;16.274;2023-07-13T00:51:00;21.00;99.90
36442;DHT22;64346;50.820;16.274;2023-07-13T00:53:29;21.00;99.90
36442;DHT22;64346;50.820;16.274;2023-07-13T00:56:01;21.00;99.90
36442;DHT22;64346;50.820;16.274;2023-07-13T00:58:28;21.00;99.90
36442;DHT22;64346;50.820;16.274;2023-07-13T01:00:58;20.90;99.90
36442;DHT22;64346;50.820;16.274;2023-07-13T01:03:26;20.80;99.90
36442;DHT22;64346;50.820;16.274;2023-07-13T01:05:53;20.80;99.90
36442;DHT22;64346;50.820;16.274;2023-07-13T01:08:23;20.80;99.90
36442;DHT22;64346;50.820;16.274;2023-07-13T01:10:55;20.80;99.90
36442;DHT22;64346;50.820;16.274;2023-07-13T01:13:25;20.70;99.90
36442;DHT22;64346;50.820;16.274;2023-07-13T01:15:53;20.70;99.90
36442;DHT22;64346;50.820;16.274;2023-07-13T01:18:25;20.70;99.90
36442;DHT22;64346;50.820;16.274;2023-07-13T01:21:03;20.70;99.90
36442;DHT22;64346;50.820;16.274;2023-07-13T01:23:31;20.60;99.90
36442;DHT22;64346;50.820;16.274;2023-07-13T01:26:00;20.60;99.90
36442;DHT22;64346;50.820;16.274;2023-07-13T01:28:28;20.60;99.90
36442;DHT22;64346;50.820;16.274;2023-07-13T01:30:58;20.60;99.90
36442;DHT22;64346;50.820;16.274;2023-07-13T01:33:26;20.60;99.90
36442;DHT22;64346;50.820;16.274;2023-07-13T01:35:55;20.60;99.90
36442;DHT22;64346;50.820;16.274;2023-07-13T01:38:24;20.60;99.90
36442;DHT22;64346;50.820;16.274;2023-07-13T01:40:52;20.60;99.90
36442;DHT22;64346;50.820;16.274;2023-07-13T01:43:19;20.60;99.90
36442;DHT22;64346;50.820;16.274;2023-07-13T01:45:49;20.60;99.90
36442;DHT22;64346;50.820;16.274;2023-07-13T01:48:16;20.60;99.90
36442;DHT22;64346;50.820;16.274;2023-07-13T01:50:44;20.60;99.90
36442;DHT22;64346;50.820;16.274;2023-07-13T01:53:11;20.70;99.90
36442;DHT22;64346;50.820;16.274;2023-07-13T01:55:39;20.70;99.90
36442;DHT22;64346;50.820;16.274;2023-07-13T01:58:06;20.70;99.90
36442;DHT22;64346;50.820;16.274;2023-07-13T02:00:40;20.60;99.90
36442;DHT22;64346;50.820;16.274;2023-07-13T02:03:07;20.40;99.90
36442;DHT22;64346;50.820;16.274;2023-07-13T02:08:02;20.70;99.90
36442;DHT22;64346;50.820;16.274;2023-07-13T02:10:30;20.80;99.90
36442;DHT22;64346;50.820;16.274;2023-07-13T02:12:59;20.70;99.90
36442;DHT22;64346;50.820;16.274;2023-07-13T02:15:27;20.70;99.90
36442;DHT22;64346;50.820;16.274;2023-07-13T02:17:54;20.70;99.90
36442;DHT22;64346;50.820;16.274;2023-07-13T02:20:22;20.60;99.90
36442;DHT22;64346;50.820;16.274;2023-07-13T02:22:49;20.70;99.90
36442;DHT22;64346;50.820;16.274;2023-07-13T02:25:16;20.70;99.90
36442;DHT22;64346;50.820;16.274;2023-07-13T02:27:44;20.70;99.90
36442;DHT22;64346;50.820;16.274;2023-07-13T02:30:11;20.70;99.90
36442;DHT22;64346;50.820;16.274;2023-07-13T02:32:38;20.70;99.90
36442;DHT22;64346;50.820;16.274;2023-07-13T02:35:08;20.70;99.90
36442;DHT22;64346;50.820;16.274;2023-07-13T02:37:36;20.70;99.90
36442;DHT22;64346;50.820;16.274;2023-07-13T02:40:03;20.80;99.90
36442;DHT22;64346;50.820;16.274;2023-07-13T02:42:31;20.80;99.90
36442;DHT22;64346;50.820;16.274;2023-07-13T02:45:00;20.80;99.90
36442;DHT22;64346;50.820;16.274;2023-07-13T02:47:27;20.80;99.90
36442;DHT22;64346;50.820;16.274;2023-07-13T02:49:55;20.80;99.90
36442;DHT22;64346;50.820;16.274;2023-07-13T02:52:22;20.80;99.90
36442;DHT22;64346;50.820;16.274;2023-07-13T02:54:50;20.80;99.90
36442;DHT22;64346;50.820;16.274;2023-07-13T02:57:20;20.70;99.90
36442;DHT22;64346;50.820;16.274;2023-07-13T02:59:47;20.70;99.90
36442;DHT22;64346;50.820;16.274;2023-07-13T03:04:42;20.60;99.90
36442;DHT22;64346;50.820;16.274;2023-07-13T03:07:09;20.60;99.90
36442;DHT22;64346;50.820;16.274;2023-07-13T03:09:37;20.60;99.90
36442;DHT22;64346;50.820;16.274;2023-07-13T03:12:05;20.60;99.90
36442;DHT22;64346;50.820;16.274;2023-07-13T03:14:33;20.60;99.90
36442;DHT22;64346;50.820;16.274;2023-07-13T03:17:00;20.60;99.90
36442;DHT22;64346;50.820;16.274;2023-07-13T03:19:27;20.60;99.90
36442;DHT22;64346;50.820;16.274;2023-07-13T03:21:54;20.60;99.90
36442;DHT22;64346;50.820;16.274;2023-07-13T03:24:22;20.70;99.90
36442;DHT22;64346;50.820;16.274;2023-07-13T03:26:49;21.00;99.90
36442;DHT22;64346;50.820;16.274;2023-07-13T03:29:17;21.20;99.90
36442;DHT22;64346;50.820;16.274;2023-07-13T03:31:44;21.20;99.90
36442;DHT22;64346;50.820;16.274;2023-07-13T03:34:13;21.10;99.90
36442;DHT22;64346;50.820;16.274;2023-07-13T03:36:41;21.00;99.90
36442;DHT22;64346;50.820;16.274;2023-07-13T03:39:11;20.80;99.90
36442;DHT22;64346;50.820;16.274;2023-07-13T03:41:38;20.60;99.90
36442;DHT22;64346;50.820;16.274;2023-07-13T03:44:08;20.40;99.90
36442;DHT22;64346;50.820;16.274;2023-07-13T03:46:35;20.00;99.90
36442;DHT22;64346;50.820;16.274;2023-07-13T03:49:04;19.70;99.90
36442;DHT22;64346;50.820;16.274;2023-07-13T03:51:34;19.50;99.90
36442;DHT22;64346;50.820;16.274;2023-07-13T03:54:02;19.30;99.90
36442;DHT22;64346;50.820;16.274;2023-07-13T03:56:29;19.10;99.90
36442;DHT22;64346;50.820;16.274;2023-07-13T03:58:57;19.00;99.90
36442;DHT22;64346;50.820;16.274;2023-07-13T04:01:24;18.90;99.90
36442;DHT22;64346;50.820;16.274;2023-07-13T04:03:54;18.80;99.90
36442;DHT22;64346;50.820;16.274;2023-07-13T04:06:27;18.70;99.90
36442;DHT22;64346;50.820;16.274;2023-07-13T04:08:58;18.70;99.90
36442;DHT22;64346;50.820;16.274;2023-07-13T04:11:28;18.60;99.90
36442;DHT22;64346;50.820;16.274;2023-07-13T04:13:58;18.60;99.90
36442;DHT22;64346;50.820;16.274;2023-07-13T04:16:25;18.60;99.90
36442;DHT22;64346;50.820;16.274;2023-07-13T04:18:54;18.50;99.90
36442;DHT22;64346;50.820;16.274;2023-07-13T04:21:22;18.50;99.90
36442;DHT22;64346;50.820;16.274;2023-07-13T04:23:49;18.50;99.90
36442;DHT22;64346;50.820;16.274;2023-07-13T04:26:17;18.50;99.90
36442;DHT22;64346;50.820;16.274;2023-07-13T04:28:44;18.40;99.90
36442;DHT22;64346;50.820;16.274;2023-07-13T04:31:11;18.40;99.90
36442;DHT22;64346;50.820;16.274;2023-07-13T04:33:39;18.40;99.90
36442;DHT22;64346;50.820;16.274;2023-07-13T04:36:06;18.40;99.90
36442;DHT22;64346;50.820;16.274;2023-07-13T04:38:38;18.30;99.90
36442;DHT22;64346;50.820;16.274;2023-07-13T04:41:08;18.10;99.90
36442;DHT22;64346;50.820;16.274;2023-07-13T04:43:40;17.90;99.90
36442;DHT22;64346;50.820;16.274;2023-07-13T04:46:10;17.60;99.90
36442;DHT22;64346;50.820;16.274;2023-07-13T04:48:40;17.60;99.90
36442;DHT22;64346;50.820;16.274;2023-07-13T04:51:09;17.60;99.90
36442;DHT22;64346;50.820;16.274;2023-07-13T04:53:37;17.60;99.90
36442;DHT22;64346;50.820;16.274;2023-07-13T04:56:04;17.60;99.90
36442;DHT22;64346;50.820;16.274;2023-07-13T04:58:32;17.70;99.90
36442;DHT22;64346;50.820;16.274;2023-07-13T05:01:01;17.90;99.90
36442;DHT22;64346;50.820;16.274;2023-07-13T05:03:30;18.10;99.90
36442;DHT22;64346;50.820;16.274;2023-07-13T05:06:00;18.40;99.90
36442;DHT22;64346;50.820;16.274;2023-07-13T05:08:27;19.10;99.90
36442;DHT22;64346;50.820;16.274;2023-07-13T05:10:57;19.30;99.90
36442;DHT22;64346;50.820;16.274;2023-07-13T05:13:26;19.70;99.90
36442;DHT22;64346;50.820;16.274;2023-07-13T05:16:03;20.20;99.90
36442;DHT22;64346;50.820;16.274;2023-07-13T05:18:34;20.70;99.90
36442;DHT22;64346;50.820;16.274;2023-07-13T05:21:05;21.20;99.90
36442;DHT22;64346;50.820;16.274;2023-07-13T05:23:34;21.50;99.90
36442;DHT22;64346;50.820;16.274;2023-07-13T05:26:03;21.70;99.90
36442;DHT22;64346;50.820;16.274;2023-07-13T05:28:34;21.90;99.90
36442;DHT22;64346;50.820;16.274;2023-07-13T05:31:04;22.10;99.90
36442;DHT22;64346;50.820;16.274;2023-07-13T05:33:33;22.30;99.90
36442;DHT22;64346;50.820;16.274;2023-07-13T05:36:01;22.60;99.90
36442;DHT22;64346;50.820;16.274;2023-07-13T05:38:29;22.90;99.90
36442;DHT22;64346;50.820;16.274;2023-07-13T05:40:58;23.30;99.90
36442;DHT22;64346;50.820;16.274;2023-07-13T05:43:29;23.70;99.90
36442;DHT22;64346;50.820;16.274;2023-07-13T05:45:57;24.40;99.90
36442;DHT22;64346;50.820;16.274;2023-07-13T05:48:25;25.40;99.90
36442;DHT22;64346;50.820;16.274;2023-07-13T05:50:57;25.90;99.70
36442;DHT22;64346;50.820;16.274;2023-07-13T05:53:27;25.70;99.50
36442;DHT22;64346;50.820;16.274;2023-07-13T05:55:58;25.00;99.70
36442;DHT22;64346;50.820;16.274;2023-07-13T05:58:31;24.30;99.90
36442;DHT22;64346;50.820;16.274;2023-07-13T06:01:04;23.60;99.90
36442;DHT22;64346;50.820;16.274;2023-07-13T06:03:33;23.20;99.90
36442;DHT22;64346;50.820;16.274;2023-07-13T06:06:00;22.70;99.90
36442;DHT22;64346;50.820;16.274;2023-07-13T06:08:28;22.30;99.90
36442;DHT22;64346;50.820;16.274;2023-07-13T06:11:04;21.90;99.90
36442;DHT22;64346;50.820;16.274;2023-07-13T06:13:35;21.60;99.90
36442;DHT22;64346;50.820;16.274;2023-07-13T06:16:07;21.30;99.90
36442;DHT22;64346;50.820;16.274;2023-07-13T06:18:36;21.00;99.90
36442;DHT22;64346;50.820;16.274;2023-07-13T06:21:14;20.70;99.90
36442;DHT22;64346;50.820;16.274;2023-07-13T06:23:44;20.50;99.90
36442;DHT22;64346;50.820;16.274;2023-07-13T06:26:12;20.30;99.90
36442;DHT22;64346;50.820;16.274;2023-07-13T06:28:39;20.10;99.90
36442;DHT22;64346;50.820;16.274;2023-07-13T06:31:09;19.90;99.90
36442;DHT22;64346;50.820;16.274;2023-07-13T06:33:40;19.70;99.90
36442;DHT22;64346;50.820;16.274;2023-07-13T06:36:08;19.50;99.90
36442;DHT22;64346;50.820;16.274;2023-07-13T06:38:37;19.30;99.90
36442;DHT22;64346;50.820;16.274;2023-07-13T06:41:07;19.20;99.90
36442;DHT22;64346;50.820;16.274;2023-07-13T06:43:35;18.90;99.90
36442;DHT22;64346;50.820;16.274;2023-07-13T06:46:05;18.80;99.90
36442;DHT22;64346;50.820;16.274;2023-07-13T06:48:35;18.70;99.90
36442;DHT22;64346;50.820;16.274;2023-07-13T06:51:03;18.80;99.90
36442;DHT22;64346;50.820;16.274;2023-07-13T06:53:31;18.90;99.90
36442;DHT22;64346;50.820;16.274;2023-07-13T06:55:58;19.50;99.90
36442;DHT22;64346;50.820;16.274;2023-07-13T06:58:28;20.60;99.90
36442;DHT22;64346;50.820;16.274;2023-07-13T07:00:57;21.70;99.90
36442;DHT22;64346;50.820;16.274;2023-07-13T07:03:24;22.40;99.90
36442;DHT22;64346;50.820;16.274;2023-07-13T07:05:52;22.80;99.90
36442;DHT22;64346;50.820;16.274;2023-07-13T07:08:20;23.40;99.90
36442;DHT22;64346;50.820;16.274;2023-07-13T07:10:47;25.00;99.90
36442;DHT22;64346;50.820;16.274;2023-07-13T07:13:14;27.00;98.50
36442;DHT22;64346;50.820;16.274;2023-07-13T07:15:42;28.50;94.80
36442;DHT22;64346;50.820;16.274;2023-07-13T07:18:09;28.60;92.60
36442;DHT22;64346;50.820;16.274;2023-07-13T07:20:37;28.10;92.70
36442;DHT22;64346;50.820;16.274;2023-07-13T07:23:06;27.40;93.40
36442;DHT22;64346;50.820;16.274;2023-07-13T07:25:36;26.60;94.20
36442;DHT22;64346;50.820;16.274;2023-07-13T07:28:04;26.00;94.80
36442;DHT22;64346;50.820;16.274;2023-07-13T07:30:35;25.50;95.30
36442;DHT22;64346;50.820;16.274;2023-07-13T07:33:05;24.90;96.30
36442;DHT22;64346;50.820;16.274;2023-07-13T07:35:32;24.50;97.50
36442;DHT22;64346;50.820;16.274;2023-07-13T07:38:05;24.30;98.10
36442;DHT22;64346;50.820;16.274;2023-07-13T07:40:39;24.10;98.40
36442;DHT22;64346;50.820;16.274;2023-07-13T07:43:11;24.00;98.60
36442;DHT22;64346;50.820;16.274;2023-07-13T07:45:39;24.00;99.20
36442;DHT22;64346;50.820;16.274;2023-07-13T07:48:07;24.50;98.50
36442;DHT22;64346;50.820;16.274;2023-07-13T07:50:37;25.90;97.40
36442;DHT22;64346;50.820;16.274;2023-07-13T07:53:06;28.00;95.20
36442;DHT22;64346;50.820;16.274;2023-07-13T07:55:34;29.60;92.70
36442;DHT22;64346;50.820;16.274;2023-07-13T07:58:07;30.40;91.30
36442;DHT22;64346;50.820;16.274;2023-07-13T08:01:05;30.90;90.20
36442;DHT22;64346;50.820;16.274;2023-07-13T08:03:35;30.90;88.70
36442;DHT22;64346;50.820;16.274;2023-07-13T08:06:05;30.60;89.10
36442;DHT22;64346;50.820;16.274;2023-07-13T08:08:35;30.30;89.20
36442;DHT22;64346;50.820;16.274;2023-07-13T08:11:06;29.90;88.90
36442;DHT22;64346;50.820;16.274;2023-07-13T08:13:53;29.20;90.20
36442;DHT22;64346;50.820;16.274;2023-07-13T08:16:22;28.60;90.80
36442;DHT22;64346;50.820;16.274;2023-07-13T08:18:50;28.30;91.20
36442;DHT22;64346;50.820;16.274;2023-07-13T08:21:17;28.30;91.30
36442;DHT22;64346;50.820;16.274;2023-07-13T08:23:46;28.40;90.60
36442;DHT22;64346;50.820;16.274;2023-07-13T08:26:13;28.40;90.90
36442;DHT22;64346;50.820;16.274;2023-07-13T08:28:41;28.40;90.90
36442;DHT22;64346;50.820;16.274;2023-07-13T08:31:09;28.60;91.20
36442;DHT22;64346;50.820;16.274;2023-07-13T08:33:38;29.30;90.80
36442;DHT22;64346;50.820;16.274;2023-07-13T08:36:06;29.90;88.90
36442;DHT22;64346;50.820;16.274;2023-07-13T08:38:35;29.70;88.90
36442;DHT22;64346;50.820;16.274;2023-07-13T08:41:14;29.60;89.20
36442;DHT22;64346;50.820;16.274;2023-07-13T08:43:51;29.90;89.10
36442;DHT22;64346;50.820;16.274;2023-07-13T08:46:24;30.40;88.20
36442;DHT22;64346;50.820;16.274;2023-07-13T08:49:02;30.40;86.80
36442;DHT22;64346;50.820;16.274;2023-07-13T08:51:39;29.70;86.30
36442;DHT22;64346;50.820;16.274;2023-07-13T08:54:28;29.40;87.10
36442;DHT22;64346;50.820;16.274;2023-07-13T08:56:58;29.70;85.30
36442;DHT22;64346;50.820;16.274;2023-07-13T08:59:28;29.70;85.70
36442;DHT22;64346;50.820;16.274;2023-07-13T09:10:30;28.30;86.40
36442;DHT22;64346;50.820;16.274;2023-07-13T09:15:45;28.90;84.30
36442;DHT22;64346;50.820;16.274;2023-07-13T09:18:20;28.70;83.80
36442;DHT22;64346;50.820;16.274;2023-07-13T09:21:02;28.80;84.80
36442;DHT22;64346;50.820;16.274;2023-07-13T09:23:34;29.00;83.40
36442;DHT22;64346;50.820;16.274;2023-07-13T09:28:40;29.50;81.80
36442;DHT22;64346;50.820;16.274;2023-07-13T09:33:39;30.00;84.60
36442;DHT22;64346;50.820;16.274;2023-07-13T09:36:30;30.70;81.90
36442;DHT22;64346;50.820;16.274;2023-07-13T09:44:27;31.90;78.40
36442;DHT22;64346;50.820;16.274;2023-07-13T09:47:30;32.00;79.00
36442;DHT22;64346;50.820;16.274;2023-07-13T09:50:01;32.00;78.20
36442;DHT22;64346;50.820;16.274;2023-07-13T09:52:47;32.10;77.50
36442;DHT22;64346;50.820;16.274;2023-07-13T09:57:57;32.60;76.30
36442;DHT22;64346;50.820;16.274;2023-07-13T10:00:27;32.50;76.70
36442;DHT22;64346;50.820;16.274;2023-07-13T10:03:06;32.00;75.20
36442;DHT22;64346;50.820;16.274;2023-07-13T10:05:47;31.30;75.40
36442;DHT22;64346;50.820;16.274;2023-07-13T10:08:25;31.00;77.10
36442;DHT22;64346;50.820;16.274;2023-07-13T10:11:10;30.80;78.60
36442;DHT22;64346;50.820;16.274;2023-07-13T10:13:44;30.80;78.80
36442;DHT22;64346;50.820;16.274;2023-07-13T10:16:12;30.90;78.30
36442;DHT22;64346;50.820;16.274;2023-07-13T10:18:51;31.00;77.20
36442;DHT22;64346;50.820;16.274;2023-07-13T10:21:26;30.90;76.50
36442;DHT22;64346;50.820;16.274;2023-07-13T10:26:54;31.00;77.40
36442;DHT22;64346;50.820;16.274;2023-07-13T10:29:25;31.00;78.40
36442;DHT22;64346;50.820;16.274;2023-07-13T10:31:54;31.00;77.20
36442;DHT22;64346;50.820;16.274;2023-07-13T10:34:22;30.90;77.50
36442;DHT22;64346;50.820;16.274;2023-07-13T10:36:49;30.80;76.90
36442;DHT22;64346;50.820;16.274;2023-07-13T10:39:20;30.90;77.30
36442;DHT22;64346;50.820;16.274;2023-07-13T10:41:58;30.90;77.60
36442;DHT22;64346;50.820;16.274;2023-07-13T10:44:29;31.10;78.00
36442;DHT22;64346;50.820;16.274;2023-07-13T10:47:07;31.20;77.70
36442;DHT22;64346;50.820;16.274;2023-07-13T10:49:37;31.10;77.20
36442;DHT22;64346;50.820;16.274;2023-07-13T10:52:20;31.00;77.10
36442;DHT22;64346;50.820;16.274;2023-07-13T10:54:58;30.80;76.80
36442;DHT22;64346;50.820;16.274;2023-07-13T10:57:25;30.70;76.80
36442;DHT22;64346;50.820;16.274;2023-07-13T11:02:29;31.00;76.60
36442;DHT22;64346;50.820;16.274;2023-07-13T11:05:26;31.00;75.70
36442;DHT22;64346;50.820;16.274;2023-07-13T11:08:32;31.00;76.60
36442;DHT22;64346;50.820;16.274;2023-07-13T11:10:53;31.10;76.90
36442;DHT22;64346;50.820;16.274;2023-07-13T11:27:49;30.80;74.50
36442;DHT22;64346;50.820;16.274;2023-07-13T11:33:16;30.40;74.10
36442;DHT22;64346;50.820;16.274;2023-07-13T11:38:37;30.30;75.80
36442;DHT22;64346;50.820;16.274;2023-07-13T11:41:21;30.10;75.30
36442;DHT22;64346;50.820;16.274;2023-07-13T11:43:50;30.00;75.20
36442;DHT22;64346;50.820;16.274;2023-07-13T11:46:23;29.80;75.40
36442;DHT22;64346;50.820;16.274;2023-07-13T11:48:52;29.60;75.10
36442;DHT22;64346;50.820;16.274;2023-07-13T11:51:28;29.50;75.90
36442;DHT22;64346;50.820;16.274;2023-07-13T11:54:03;29.40;75.30
36442;DHT22;64346;50.820;16.274;2023-07-13T11:56:34;29.40;76.30
36442;DHT22;64346;50.820;16.274;2023-07-13T11:59:07;29.50;77.30
36442;DHT22;64346;50.820;16.274;2023-07-13T12:01:45;29.60;75.70
36442;DHT22;64346;50.820;16.274;2023-07-13T12:07:18;29.80;75.30
36442;DHT22;64346;50.820;16.274;2023-07-13T12:09:46;30.00;74.30
36442;DHT22;64346;50.820;16.274;2023-07-13T12:12:20;30.30;73.30
36442;DHT22;64346;50.820;16.274;2023-07-13T12:14:53;30.50;73.30
36442;DHT22;64346;50.820;16.274;2023-07-13T12:17:24;30.60;73.00
36442;DHT22;64346;50.820;16.274;2023-07-13T12:19:53;30.40;72.60
36442;DHT22;64346;50.820;16.274;2023-07-13T12:22:21;30.20;73.30
36442;DHT22;64346;50.820;16.274;2023-07-13T12:24:51;29.90;74.20
36442;DHT22;64346;50.820;16.274;2023-07-13T12:27:26;29.70;74.50
36442;DHT22;64346;50.820;16.274;2023-07-13T12:30:03;29.50;74.30
36442;DHT22;64346;50.820;16.274;2023-07-13T12:32:31;29.10;73.20
36442;DHT22;64346;50.820;16.274;2023-07-13T12:35:24;28.90;73.50
36442;DHT22;64346;50.820;16.274;2023-07-13T12:37:53;28.80;73.30
36442;DHT22;64346;50.820;16.274;2023-07-13T12:40:32;28.70;72.40
36442;DHT22;64346;50.820;16.274;2023-07-13T12:43:03;28.60;72.60
36442;DHT22;64346;50.820;16.274;2023-07-13T12:45:31;28.40;71.90
36442;DHT22;64346;50.820;16.274;2023-07-13T12:48:13;28.30;71.40
36442;DHT22;64346;50.820;16.274;2023-07-13T12:50:45;28.10;73.20
36442;DHT22;64346;50.820;16.274;2023-07-13T12:53:16;27.90;73.60
36442;DHT22;64346;50.820;16.274;2023-07-13T12:55:47;27.70;73.80
36442;DHT22;64346;50.820;16.274;2023-07-13T13:00:58;27.30;74.40
36442;DHT22;64346;50.820;16.274;2023-07-13T13:03:37;27.10;74.60
36442;DHT22;64346;50.820;16.274;2023-07-13T13:08:49;26.80;76.80
36442;DHT22;64346;50.820;16.274;2023-07-13T13:11:21;26.80;77.90
36442;DHT22;64346;50.820;16.274;2023-07-13T13:13:52;26.80;76.40
36442;DHT22;64346;50.820;16.274;2023-07-13T13:16:32;26.80;76.60
36442;DHT22;64346;50.820;16.274;2023-07-13T13:19:15;26.80;77.30
36442;DHT22;64346;50.820;16.274;2023-07-13T13:21:44;26.80;77.90
36442;DHT22;64346;50.820;16.274;2023-07-13T13:24:23;26.70;77.30
36442;DHT22;64346;50.820;16.274;2023-07-13T13:26:51;26.70;76.70
36442;DHT22;64346;50.820;16.274;2023-07-13T13:29:22;26.90;76.90
36442;DHT22;64346;50.820;16.274;2023-07-13T13:32:10;27.00;75.80
36442;DHT22;64346;50.820;16.274;2023-07-13T13:34:41;27.10;75.90
36442;DHT22;64346;50.820;16.274;2023-07-13T13:37:21;27.00;76.40
36442;DHT22;64346;50.820;16.274;2023-07-13T13:39:49;27.00;75.70
36442;DHT22;64346;50.820;16.274;2023-07-13T13:42:35;26.90;75.40
36442;DHT22;64346;50.820;16.274;2023-07-13T13:45:03;26.80;73.70
36442;DHT22;64346;50.820;16.274;2023-07-13T13:47:32;26.60;74.40
36442;DHT22;64346;50.820;16.274;2023-07-13T13:50:15;26.60;82.90
36442;DHT22;64346;50.820;16.274;2023-07-13T13:52:44;26.60;75.20
36442;DHT22;64346;50.820;16.274;2023-07-13T13:55:17;26.50;76.40
36442;DHT22;64346;50.820;16.274;2023-07-13T13:57:50;26.50;74.60
36442;DHT22;64346;50.820;16.274;2023-07-13T14:00:20;26.40;76.60
36442;DHT22;64346;50.820;16.274;2023-07-13T14:02:48;26.20;75.90
36442;DHT22;64346;50.820;16.274;2023-07-13T14:05:21;26.10;75.90
36442;DHT22;64346;50.820;16.274;2023-07-13T14:07:49;26.00;76.70
36442;DHT22;64346;50.820;16.274;2023-07-13T14:10:20;25.80;77.20
36442;DHT22;64346;50.820;16.274;2023-07-13T14:12:50;25.70;77.80
36442;DHT22;64346;50.820;16.274;2023-07-13T14:15:30;25.60;79.40
36442;DHT22;64346;50.820;16.274;2023-07-13T14:17:57;25.60;78.20
36442;DHT22;64346;50.820;16.274;2023-07-13T14:20:27;25.50;78.00
36442;DHT22;64346;50.820;16.274;2023-07-13T14:22:54;25.60;78.30
36442;DHT22;64346;50.820;16.274;2023-07-13T14:25:22;25.50;77.80
36442;DHT22;64346;50.820;16.274;2023-07-13T14:27:56;25.50;78.50
36442;DHT22;64346;50.820;16.274;2023-07-13T14:30:25;25.50;77.80
36442;DHT22;64346;50.820;16.274;2023-07-13T14:32:54;25.50;78.60
36442;DHT22;64346;50.820;16.274;2023-07-13T14:35:22;25.50;77.80
36442;DHT22;64346;50.820;16.274;2023-07-13T14:37:50;25.50;76.70
36442;DHT22;64346;50.820;16.274;2023-07-13T14:40:24;25.40;76.40
36442;DHT22;64346;50.820;16.274;2023-07-13T14:42:53;25.40;75.40
36442;DHT22;64346;50.820;16.274;2023-07-13T14:45:23;25.30;76.80
36442;DHT22;64346;50.820;16.274;2023-07-13T14:47:50;25.30;77.40
36442;DHT22;64346;50.820;16.274;2023-07-13T14:50:24;25.30;76.60
36442;DHT22;64346;50.820;16.274;2023-07-13T14:52:53;25.30;76.90
36442;DHT22;64346;50.820;16.274;2023-07-13T14:55:21;25.40;76.70
36442;DHT22;64346;50.820;16.274;2023-07-13T14:57:52;25.60;77.00
36442;DHT22;64346;50.820;16.274;2023-07-13T15:00:23;25.70;77.00
36442;DHT22;64346;50.820;16.274;2023-07-13T15:02:52;25.80;76.90
36442;DHT22;64346;50.820;16.274;2023-07-13T15:05:23;25.90;76.00
36442;DHT22;64346;50.820;16.274;2023-07-13T15:07:51;26.00;76.70
36442;DHT22;64346;50.820;16.274;2023-07-13T15:10:24;26.00;77.10
36442;DHT22;64346;50.820;16.274;2023-07-13T15:12:52;26.20;76.20
36442;DHT22;64346;50.820;16.274;2023-07-13T15:15:22;26.20;76.60
36442;DHT22;64346;50.820;16.274;2023-07-13T15:17:49;26.20;76.70
36442;DHT22;64346;50.820;16.274;2023-07-13T15:20:27;26.20;76.80
36442;DHT22;64346;50.820;16.274;2023-07-13T15:22:59;26.20;77.20
36442;DHT22;64346;50.820;16.274;2023-07-13T15:25:33;26.20;76.70
36442;DHT22;64346;50.820;16.274;2023-07-13T15:28:03;26.10;77.10
36442;DHT22;64346;50.820;16.274;2023-07-13T15:30:34;26.10;76.80
36442;DHT22;64346;50.820;16.274;2023-07-13T15:33:26;26.00;77.40
36442;DHT22;64346;50.820;16.274;2023-07-13T15:35:54;26.20;77.30
36442;DHT22;64346;50.820;16.274;2023-07-13T15:38:27;26.20;77.30
36442;DHT22;64346;50.820;16.274;2023-07-13T15:40:56;26.30;76.30
36442;DHT22;64346;50.820;16.274;2023-07-13T15:43:25;26.40;75.50
36442;DHT22;64346;50.820;16.274;2023-07-13T15:45:55;26.50;75.20
36442;DHT22;64346;50.820;16.274;2023-07-13T15:48:26;26.40;75.20
36442;DHT22;64346;50.820;16.274;2023-07-13T15:50:59;26.40;76.00
36442;DHT22;64346;50.820;16.274;2023-07-13T15:53:34;26.40;76.00
36442;DHT22;64346;50.820;16.274;2023-07-13T15:58:43;26.50;74.50
36442;DHT22;64346;50.820;16.274;2023-07-13T16:01:11;26.50;74.00
36442;DHT22;64346;50.820;16.274;2023-07-13T16:03:38;26.50;74.50
36442;DHT22;64346;50.820;16.274;2023-07-13T16:06:31;26.50;74.80
36442;DHT22;64346;50.820;16.274;2023-07-13T16:09:02;26.50;74.50
36442;DHT22;64346;50.820;16.274;2023-07-13T16:11:41;26.30;74.90
36442;DHT22;64346;50.820;16.274;2023-07-13T16:14:13;26.30;75.30
36442;DHT22;64346;50.820;16.274;2023-07-13T16:16:41;26.20;75.80
36442;DHT22;64346;50.820;16.274;2023-07-13T16:19:09;26.10;75.80
36442;DHT22;64346;50.820;16.274;2023-07-13T16:21:42;26.10;75.80
36442;DHT22;64346;50.820;16.274;2023-07-13T16:24:13;26.00;76.20
36442;DHT22;64346;50.820;16.274;2023-07-13T16:26:43;26.00;76.90
36442;DHT22;64346;50.820;16.274;2023-07-13T16:29:16;25.90;76.80
36442;DHT22;64346;50.820;16.274;2023-07-13T16:32:03;25.80;76.10
36442;DHT22;64346;50.820;16.274;2023-07-13T16:34:32;25.70;76.60
36442;DHT22;64346;50.820;16.274;2023-07-13T16:37:09;25.60;77.10
36442;DHT22;64346;50.820;16.274;2023-07-13T16:39:38;25.60;76.60
36442;DHT22;64346;50.820;16.274;2023-07-13T16:42:09;25.70;74.70
36442;DHT22;64346;50.820;16.274;2023-07-13T16:44:41;25.80;74.40
36442;DHT22;64346;50.820;16.274;2023-07-13T16:47:14;25.80;73.70